Airfield :
LOGIN :

Register | Disclaimer

   EN    FR    IT 

 










Legend :    VFR   Marginal VFR   IFR   Intensive IFR   Very Intensive IFR
Visi :
Ceiling :
>= 8 km
>= 3000ft
5 to 8 km
1000 to 3000 ft
1500m to 5 km
500 to 1000 ft
800 to 1500m
200 to 500 ft
< 800m
< 200 ft
Symbols :   Thunderstorms  Fog  Heavy snow  Heavy precipitations  Wind > 20 kt
SIGMETs :     Misc.  Thunderstorms  Icing  Turbulence  Mountain Waves  Volcanic Ashes






- Airport Elevation : 2776 ft
- IATA code : VLL


LEVD - Valladolid

CURRENT METAR :
  • 131630Z 04013KT 010V080 CAVOK 29/11 Q1021

EXPIRED METARs :
  • 131600Z 02009KT 340V060 CAVOK 29/10 Q1021
  • 131530Z 06007KT 020V110 CAVOK 28/10 Q1022
  • 131500Z 05011KT 010V100 CAVOK 29/10 Q1022
  • 131430Z 09009KT 040V140 CAVOK 28/11 Q1022
  • 131400Z 06008KT 360V120 CAVOK 28/11 Q1022
  • 131330Z 09010KT CAVOK 28/11 Q1023

TAF TAF LEVD
Valid from the 13 at 12:00 until the 14 at 12:00 UTC


131100Z 1312/1412 04012KT CAVOK TX31/1315Z TN14/1406Z
PROB30
TEMPO 1314/1319 FEW040TCU



MET'MAP, your aeronautical weather chart ! - Copyright ORBIFLY December 2007 - Disclaimer

ORBIFLY MET'MAP TEAM :

Programming & Development : Alexandra Zaïnal
Concept & original design : Baudouin d'Aumeries
Assistance for programming : Marc-Olivier Méhu
Technical & hardware support : Manuel Goepfert

Contact : metmap@orbifly.com




SOURCES & CREDITS :

   NOAA